< < Back
Terminal Aerodrome Forecast


Current Version              Previous Versions:   1  2  3  4  5  6  7  8  9  

Terminal Aerodrome Forecast

324
FTUS42 KFFC 292300
TAFFTY
TAF
KFTY 292320Z 3000/3024 VRB03KT P6SM SCT080 SCT250
     FM301600 17006KT P6SM SCT035 BKN050 PROB30 3017/3023 6SM TSRA
      BKN045CB=

Latest METAR

379
SAUS70 KWBC 300200 RRI
MTRFTY
METAR KFTY 300153Z 00000KT 10SM CLR 23/19 A3007 RMK AO2 SLP173
T02330189


USA.gov is the U.S. government's official web portal to all federal, state and local government web resources and services.